sensor_id;sensor_type;location;lat;lon;timestamp;P1;durP1;ratioP1;P2;durP2;ratioP2
41229;SDS011;26964;50.428;19.218;2023-03-01T00:01:13;74.9;;;33.9;;
41229;SDS011;26964;50.428;19.218;2023-03-01T00:06:12;84.5;;;42.5;;
41229;SDS011;26964;50.428;19.218;2023-03-01T00:11:13;65.2;;;32.2;;
41229;SDS011;26964;50.428;19.218;2023-03-01T00:16:13;68.5;;;34.4;;
41229;SDS011;26964;50.428;19.218;2023-03-01T00:21:12;97.1;;;47.2;;
41229;SDS011;26964;50.428;19.218;2023-03-01T00:26:13;90.1;;;44.5;;
41229;SDS011;26964;50.428;19.218;2023-03-01T00:31:13;127.6;;;60.0;;
41229;SDS011;26964;50.428;19.218;2023-03-01T00:36:14;116.5;;;54.1;;
41229;SDS011;26964;50.428;19.218;2023-03-01T00:41:14;144.1;;;71.3;;
41229;SDS011;26964;50.428;19.218;2023-03-01T00:46:14;113.7;;;57.2;;
41229;SDS011;26964;50.428;19.218;2023-03-01T00:51:14;129.1;;;61.2;;
41229;SDS011;26964;50.428;19.218;2023-03-01T00:56:13;118.1;;;55.7;;
41229;SDS011;26964;50.428;19.218;2023-03-01T01:01:14;123.0;;;59.5;;
41229;SDS011;26964;50.428;19.218;2023-03-01T01:06:14;92.7;;;43.5;;
41229;SDS011;26964;50.428;19.218;2023-03-01T01:11:13;117.5;;;55.7;;
41229;SDS011;26964;50.428;19.218;2023-03-01T01:16:13;149.0;;;67.5;;
41229;SDS011;26964;50.428;19.218;2023-03-01T01:21:14;159.9;;;73.3;;
41229;SDS011;26964;50.428;19.218;2023-03-01T01:26:14;126.9;;;57.7;;
41229;SDS011;26964;50.428;19.218;2023-03-01T01:31:13;124.3;;;58.4;;
41229;SDS011;26964;50.428;19.218;2023-03-01T01:36:13;153.7;;;73.2;;
41229;SDS011;26964;50.428;19.218;2023-03-01T01:41:13;141.2;;;64.2;;
41229;SDS011;26964;50.428;19.218;2023-03-01T01:46:15;135.8;;;62.3;;
41229;SDS011;26964;50.428;19.218;2023-03-01T01:51:13;117.6;;;58.9;;
41229;SDS011;26964;50.428;19.218;2023-03-01T01:56:13;119.5;;;54.9;;
41229;SDS011;26964;50.428;19.218;2023-03-01T02:01:13;127.5;;;60.0;;
41229;SDS011;26964;50.428;19.218;2023-03-01T02:06:15;121.5;;;58.6;;
41229;SDS011;26964;50.428;19.218;2023-03-01T02:11:13;123.1;;;59.5;;
41229;SDS011;26964;50.428;19.218;2023-03-01T02:16:12;121.3;;;56.6;;
41229;SDS011;26964;50.428;19.218;2023-03-01T02:26:15;101.6;;;48.0;;
41229;SDS011;26964;50.428;19.218;2023-03-01T02:31:14;130.5;;;60.1;;
41229;SDS011;26964;50.428;19.218;2023-03-01T02:36:14;115.6;;;52.9;;
41229;SDS011;26964;50.428;19.218;2023-03-01T02:41:13;114.9;;;53.0;;
41229;SDS011;26964;50.428;19.218;2023-03-01T02:46:14;114.3;;;54.6;;
41229;SDS011;26964;50.428;19.218;2023-03-01T02:56:12;101.1;;;50.0;;
41229;SDS011;26964;50.428;19.218;2023-03-01T03:01:12;94.9;;;44.8;;
41229;SDS011;26964;50.428;19.218;2023-03-01T03:06:13;125.3;;;56.0;;
41229;SDS011;26964;50.428;19.218;2023-03-01T03:11:12;148.8;;;62.7;;
41229;SDS011;26964;50.428;19.218;2023-03-01T03:16:13;113.9;;;54.3;;
41229;SDS011;26964;50.428;19.218;2023-03-01T03:21:13;127.0;;;57.9;;
41229;SDS011;26964;50.428;19.218;2023-03-01T03:26:13;148.8;;;62.9;;
41229;SDS011;26964;50.428;19.218;2023-03-01T03:31:12;137.6;;;64.9;;
41229;SDS011;26964;50.428;19.218;2023-03-01T03:41:12;96.9;;;45.6;;
41229;SDS011;26964;50.428;19.218;2023-03-01T03:46:12;115.5;;;53.5;;
41229;SDS011;26964;50.428;19.218;2023-03-01T03:51:12;97.1;;;47.0;;
41229;SDS011;26964;50.428;19.218;2023-03-01T03:56:12;87.3;;;44.1;;
41229;SDS011;26964;50.428;19.218;2023-03-01T04:01:12;134.0;;;64.5;;
41229;SDS011;26964;50.428;19.218;2023-03-01T04:06:13;139.8;;;68.3;;
41229;SDS011;26964;50.428;19.218;2023-03-01T04:11:12;259.1;;;102.2;;
41229;SDS011;26964;50.428;19.218;2023-03-01T04:16:12;247.0;;;91.9;;
41229;SDS011;26964;50.428;19.218;2023-03-01T04:21:13;176.2;;;71.4;;
41229;SDS011;26964;50.428;19.218;2023-03-01T04:26:12;152.1;;;66.0;;
41229;SDS011;26964;50.428;19.218;2023-03-01T04:31:13;153.5;;;67.2;;
41229;SDS011;26964;50.428;19.218;2023-03-01T04:36:13;153.2;;;65.9;;
41229;SDS011;26964;50.428;19.218;2023-03-01T04:41:13;142.4;;;62.4;;
41229;SDS011;26964;50.428;19.218;2023-03-01T04:46:13;165.3;;;66.4;;
41229;SDS011;26964;50.428;19.218;2023-03-01T04:51:13;171.1;;;71.5;;
41229;SDS011;26964;50.428;19.218;2023-03-01T04:56:12;127.6;;;58.8;;
41229;SDS011;26964;50.428;19.218;2023-03-01T05:01:13;120.4;;;55.7;;
41229;SDS011;26964;50.428;19.218;2023-03-01T05:06:12;120.1;;;55.4;;
41229;SDS011;26964;50.428;19.218;2023-03-01T05:11:12;108.2;;;49.5;;
41229;SDS011;26964;50.428;19.218;2023-03-01T05:16:11;102.3;;;47.2;;
41229;SDS011;26964;50.428;19.218;2023-03-01T05:21:12;90.1;;;43.5;;
41229;SDS011;26964;50.428;19.218;2023-03-01T05:26:12;85.0;;;42.0;;
41229;SDS011;26964;50.428;19.218;2023-03-01T05:31:12;79.4;;;38.1;;
41229;SDS011;26964;50.428;19.218;2023-03-01T05:36:11;82.7;;;42.7;;
41229;SDS011;26964;50.428;19.218;2023-03-01T05:41:13;78.8;;;40.0;;
41229;SDS011;26964;50.428;19.218;2023-03-01T05:46:12;67.2;;;34.7;;
41229;SDS011;26964;50.428;19.218;2023-03-01T05:51:11;76.0;;;35.9;;
41229;SDS011;26964;50.428;19.218;2023-03-01T05:56:12;54.7;;;29.8;;
41229;SDS011;26964;50.428;19.218;2023-03-01T06:01:12;79.5;;;41.0;;
41229;SDS011;26964;50.428;19.218;2023-03-01T06:06:12;144.8;;;61.0;;
41229;SDS011;26964;50.428;19.218;2023-03-01T06:11:12;102.4;;;46.5;;
41229;SDS011;26964;50.428;19.218;2023-03-01T06:16:13;145.4;;;64.5;;
41229;SDS011;26964;50.428;19.218;2023-03-01T06:21:12;169.6;;;78.2;;
41229;SDS011;26964;50.428;19.218;2023-03-01T06:26:12;102.5;;;50.4;;
41229;SDS011;26964;50.428;19.218;2023-03-01T06:31:13;112.1;;;57.3;;
41229;SDS011;26964;50.428;19.218;2023-03-01T06:36:11;116.0;;;57.6;;
41229;SDS011;26964;50.428;19.218;2023-03-01T06:41:12;83.4;;;41.0;;
41229;SDS011;26964;50.428;19.218;2023-03-01T06:46:11;129.4;;;65.5;;
41229;SDS011;26964;50.428;19.218;2023-03-01T06:51:12;99.3;;;52.2;;
41229;SDS011;26964;50.428;19.218;2023-03-01T06:56:12;101.6;;;51.3;;
41229;SDS011;26964;50.428;19.218;2023-03-01T07:01:11;102.0;;;53.0;;
41229;SDS011;26964;50.428;19.218;2023-03-01T07:06:11;93.2;;;47.7;;
41229;SDS011;26964;50.428;19.218;2023-03-01T07:11:11;92.1;;;49.5;;
41229;SDS011;26964;50.428;19.218;2023-03-01T07:16:12;97.6;;;51.5;;
41229;SDS011;26964;50.428;19.218;2023-03-01T07:21:13;155.4;;;77.9;;
41229;SDS011;26964;50.428;19.218;2023-03-01T07:26:12;146.6;;;65.3;;
41229;SDS011;26964;50.428;19.218;2023-03-01T07:31:16;136.2;;;68.8;;
41229;SDS011;26964;50.428;19.218;2023-03-01T07:36:12;120.9;;;63.8;;
41229;SDS011;26964;50.428;19.218;2023-03-01T07:41:11;106.0;;;57.3;;
41229;SDS011;26964;50.428;19.218;2023-03-01T07:46:11;82.3;;;44.1;;
41229;SDS011;26964;50.428;19.218;2023-03-01T07:51:11;58.6;;;29.4;;
41229;SDS011;26964;50.428;19.218;2023-03-01T07:56:12;68.0;;;36.5;;
41229;SDS011;26964;50.428;19.218;2023-03-01T08:01:12;68.9;;;36.9;;
41229;SDS011;26964;50.428;19.218;2023-03-01T08:06:12;55.4;;;29.9;;
41229;SDS011;26964;50.428;19.218;2023-03-01T08:11:12;44.9;;;25.0;;
41229;SDS011;26964;50.428;19.218;2023-03-01T08:16:12;36.9;;;20.3;;
41229;SDS011;26964;50.428;19.218;2023-03-01T08:21:12;26.3;;;14.4;;
41229;SDS011;26964;50.428;19.218;2023-03-01T08:26:12;23.5;;;13.5;;
41229;SDS011;26964;50.428;19.218;2023-03-01T08:31:13;33.5;;;18.6;;
41229;SDS011;26964;50.428;19.218;2023-03-01T08:36:11;32.1;;;16.6;;
41229;SDS011;26964;50.428;19.218;2023-03-01T08:41:11;26.0;;;14.8;;
41229;SDS011;26964;50.428;19.218;2023-03-01T08:46:12;26.8;;;15.6;;
41229;SDS011;26964;50.428;19.218;2023-03-01T08:51:12;27.0;;;15.9;;
41229;SDS011;26964;50.428;19.218;2023-03-01T08:56:11;29.1;;;15.4;;
41229;SDS011;26964;50.428;19.218;2023-03-01T09:01:12;24.2;;;14.2;;
41229;SDS011;26964;50.428;19.218;2023-03-01T09:06:12;26.5;;;14.5;;
41229;SDS011;26964;50.428;19.218;2023-03-01T09:11:12;37.7;;;20.7;;
41229;SDS011;26964;50.428;19.218;2023-03-01T09:16:12;35.6;;;20.5;;
41229;SDS011;26964;50.428;19.218;2023-03-01T09:21:12;36.2;;;19.9;;
41229;SDS011;26964;50.428;19.218;2023-03-01T09:26:12;35.4;;;19.9;;
41229;SDS011;26964;50.428;19.218;2023-03-01T09:31:12;33.9;;;18.7;;
41229;SDS011;26964;50.428;19.218;2023-03-01T09:36:12;36.2;;;18.6;;
41229;SDS011;26964;50.428;19.218;2023-03-01T09:46:12;33.3;;;18.8;;
41229;SDS011;26964;50.428;19.218;2023-03-01T09:51:13;30.8;;;17.2;;
41229;SDS011;26964;50.428;19.218;2023-03-01T09:56:12;37.6;;;20.9;;
41229;SDS011;26964;50.428;19.218;2023-03-01T10:06:12;33.8;;;18.3;;
41229;SDS011;26964;50.428;19.218;2023-03-01T10:16:12;29.0;;;15.3;;
41229;SDS011;26964;50.428;19.218;2023-03-01T10:21:13;29.1;;;16.0;;
41229;SDS011;26964;50.428;19.218;2023-03-01T10:26:14;30.4;;;17.1;;
41229;SDS011;26964;50.428;19.218;2023-03-01T10:31:12;28.7;;;17.3;;
41229;SDS011;26964;50.428;19.218;2023-03-01T10:36:11;27.6;;;16.1;;
41229;SDS011;26964;50.428;19.218;2023-03-01T10:41:11;26.7;;;16.2;;
41229;SDS011;26964;50.428;19.218;2023-03-01T10:51:12;25.0;;;14.2;;
41229;SDS011;26964;50.428;19.218;2023-03-01T10:56:12;23.2;;;13.4;;
41229;SDS011;26964;50.428;19.218;2023-03-01T11:16:11;29.3;;;16.8;;
41229;SDS011;26964;50.428;19.218;2023-03-01T11:21:11;28.1;;;16.8;;
41229;SDS011;26964;50.428;19.218;2023-03-01T11:26:12;25.9;;;15.5;;
41229;SDS011;26964;50.428;19.218;2023-03-01T11:31:11;26.6;;;15.4;;
41229;SDS011;26964;50.428;19.218;2023-03-01T11:36:15;56.2;;;26.1;;
41229;SDS011;26964;50.428;19.218;2023-03-01T11:41:12;24.0;;;13.6;;
41229;SDS011;26964;50.428;19.218;2023-03-01T11:51:13;24.2;;;12.6;;
41229;SDS011;26964;50.428;19.218;2023-03-01T12:11:14;26.6;;;16.9;;
41229;SDS011;26964;50.428;19.218;2023-03-01T12:26:13;27.2;;;15.2;;
41229;SDS011;26964;50.428;19.218;2023-03-01T12:51:12;34.8;;;18.1;;
41229;SDS011;26964;50.428;19.218;2023-03-01T12:56:11;29.1;;;16.1;;
41229;SDS011;26964;50.428;19.218;2023-03-01T13:06:12;30.0;;;16.0;;
41229;SDS011;26964;50.428;19.218;2023-03-01T13:11:14;28.2;;;16.3;;
41229;SDS011;26964;50.428;19.218;2023-03-01T13:21:11;30.0;;;16.1;;
41229;SDS011;26964;50.428;19.218;2023-03-01T13:26:12;24.9;;;14.7;;
41229;SDS011;26964;50.428;19.218;2023-03-01T13:31:55;23.2;;;13.8;;
41229;SDS011;26964;50.428;19.218;2023-03-01T13:36:11;22.5;;;13.1;;
41229;SDS011;26964;50.428;19.218;2023-03-01T13:41:11;23.6;;;12.9;;
41229;SDS011;26964;50.428;19.218;2023-03-01T13:46:12;26.2;;;15.7;;
41229;SDS011;26964;50.428;19.218;2023-03-01T13:51:11;20.5;;;12.0;;
41229;SDS011;26964;50.428;19.218;2023-03-01T13:56:12;26.9;;;13.6;;
41229;SDS011;26964;50.428;19.218;2023-03-01T14:06:12;22.0;;;12.8;;
41229;SDS011;26964;50.428;19.218;2023-03-01T14:16:14;30.6;;;17.4;;
41229;SDS011;26964;50.428;19.218;2023-03-01T14:21:12;26.7;;;15.3;;
41229;SDS011;26964;50.428;19.218;2023-03-01T14:26:11;26.0;;;12.6;;
41229;SDS011;26964;50.428;19.218;2023-03-01T14:36:11;17.4;;;8.1;;
41229;SDS011;26964;50.428;19.218;2023-03-01T14:41:12;30.5;;;12.8;;
41229;SDS011;26964;50.428;19.218;2023-03-01T14:51:11;11.0;;;6.8;;
41229;SDS011;26964;50.428;19.218;2023-03-01T14:56:12;12.6;;;7.4;;
41229;SDS011;26964;50.428;19.218;2023-03-01T15:01:12;16.9;;;9.8;;
41229;SDS011;26964;50.428;19.218;2023-03-01T15:06:11;12.5;;;8.0;;
41229;SDS011;26964;50.428;19.218;2023-03-01T15:16:11;50.5;;;20.0;;
41229;SDS011;26964;50.428;19.218;2023-03-01T15:31:14;11.9;;;7.0;;
41229;SDS011;26964;50.428;19.218;2023-03-01T15:51:11;15.6;;;7.1;;
41229;SDS011;26964;50.428;19.218;2023-03-01T15:56:10;20.8;;;11.9;;
41229;SDS011;26964;50.428;19.218;2023-03-01T16:01:11;22.1;;;11.7;;
41229;SDS011;26964;50.428;19.218;2023-03-01T16:06:13;23.9;;;12.3;;
41229;SDS011;26964;50.428;19.218;2023-03-01T16:11:13;34.1;;;18.3;;
41229;SDS011;26964;50.428;19.218;2023-03-01T16:16:11;43.9;;;22.1;;
41229;SDS011;26964;50.428;19.218;2023-03-01T16:21:12;37.3;;;17.1;;
41229;SDS011;26964;50.428;19.218;2023-03-01T16:26:11;31.4;;;14.6;;
41229;SDS011;26964;50.428;19.218;2023-03-01T16:31:11;24.9;;;13.0;;
41229;SDS011;26964;50.428;19.218;2023-03-01T16:36:11;21.4;;;11.6;;
41229;SDS011;26964;50.428;19.218;2023-03-01T16:41:11;24.3;;;12.3;;
41229;SDS011;26964;50.428;19.218;2023-03-01T16:46:11;31.9;;;15.0;;
41229;SDS011;26964;50.428;19.218;2023-03-01T16:51:10;32.3;;;16.2;;
41229;SDS011;26964;50.428;19.218;2023-03-01T16:56:11;47.3;;;22.3;;
41229;SDS011;26964;50.428;19.218;2023-03-01T17:01:11;63.6;;;24.6;;
41229;SDS011;26964;50.428;19.218;2023-03-01T17:06:11;75.9;;;28.6;;
41229;SDS011;26964;50.428;19.218;2023-03-01T17:11:11;64.7;;;25.0;;
41229;SDS011;26964;50.428;19.218;2023-03-01T17:16:11;72.3;;;28.2;;
41229;SDS011;26964;50.428;19.218;2023-03-01T17:21:10;88.8;;;36.5;;
41229;SDS011;26964;50.428;19.218;2023-03-01T17:26:10;82.5;;;34.9;;
41229;SDS011;26964;50.428;19.218;2023-03-01T17:31:10;71.0;;;31.7;;
41229;SDS011;26964;50.428;19.218;2023-03-01T17:36:10;69.5;;;30.3;;
41229;SDS011;26964;50.428;19.218;2023-03-01T17:41:10;59.9;;;27.8;;
41229;SDS011;26964;50.428;19.218;2023-03-01T17:46:10;54.9;;;27.5;;
41229;SDS011;26964;50.428;19.218;2023-03-01T17:51:10;54.5;;;27.4;;
41229;SDS011;26964;50.428;19.218;2023-03-01T17:56:10;52.8;;;27.8;;
41229;SDS011;26964;50.428;19.218;2023-03-01T18:01:11;55.0;;;28.8;;
41229;SDS011;26964;50.428;19.218;2023-03-01T18:06:11;53.7;;;28.0;;
41229;SDS011;26964;50.428;19.218;2023-03-01T18:11:10;59.2;;;30.0;;
41229;SDS011;26964;50.428;19.218;2023-03-01T18:16:12;52.9;;;28.1;;
41229;SDS011;26964;50.428;19.218;2023-03-01T18:21:11;57.1;;;28.8;;
41229;SDS011;26964;50.428;19.218;2023-03-01T18:26:11;62.0;;;30.6;;
41229;SDS011;26964;50.428;19.218;2023-03-01T18:31:11;64.9;;;33.0;;
41229;SDS011;26964;50.428;19.218;2023-03-01T18:41:10;70.5;;;33.8;;
41229;SDS011;26964;50.428;19.218;2023-03-01T18:46:11;56.4;;;28.6;;
41229;SDS011;26964;50.428;19.218;2023-03-01T18:51:12;48.1;;;24.9;;
41229;SDS011;26964;50.428;19.218;2023-03-01T18:56:11;48.1;;;24.1;;
41229;SDS011;26964;50.428;19.218;2023-03-01T19:01:11;66.7;;;33.6;;
41229;SDS011;26964;50.428;19.218;2023-03-01T19:06:11;89.7;;;43.5;;
41229;SDS011;26964;50.428;19.218;2023-03-01T19:11:12;385.9;;;115.5;;
41229;SDS011;26964;50.428;19.218;2023-03-01T19:16:13;206.9;;;92.4;;
41229;SDS011;26964;50.428;19.218;2023-03-01T19:21:11;214.0;;;94.4;;
41229;SDS011;26964;50.428;19.218;2023-03-01T19:26:12;256.6;;;98.9;;
41229;SDS011;26964;50.428;19.218;2023-03-01T19:31:12;237.6;;;88.3;;
41229;SDS011;26964;50.428;19.218;2023-03-01T19:36:11;122.2;;;53.9;;
41229;SDS011;26964;50.428;19.218;2023-03-01T19:41:11;76.3;;;35.1;;
41229;SDS011;26964;50.428;19.218;2023-03-01T19:46:10;69.1;;;32.9;;
41229;SDS011;26964;50.428;19.218;2023-03-01T19:51:10;63.7;;;32.4;;
41229;SDS011;26964;50.428;19.218;2023-03-01T19:56:14;66.4;;;33.6;;
41229;SDS011;26964;50.428;19.218;2023-03-01T20:01:13;68.8;;;36.8;;
41229;SDS011;26964;50.428;19.218;2023-03-01T20:06:11;78.5;;;40.2;;
41229;SDS011;26964;50.428;19.218;2023-03-01T20:11:11;76.2;;;39.8;;
41229;SDS011;26964;50.428;19.218;2023-03-01T20:16:10;99.9;;;47.8;;
41229;SDS011;26964;50.428;19.218;2023-03-01T20:21:10;81.2;;;43.4;;
41229;SDS011;26964;50.428;19.218;2023-03-01T20:26:10;79.6;;;38.5;;
41229;SDS011;26964;50.428;19.218;2023-03-01T20:31:11;79.3;;;36.6;;
41229;SDS011;26964;50.428;19.218;2023-03-01T20:36:11;164.7;;;76.0;;
41229;SDS011;26964;50.428;19.218;2023-03-01T20:41:11;178.2;;;80.3;;
41229;SDS011;26964;50.428;19.218;2023-03-01T20:46:11;210.0;;;88.1;;
41229;SDS011;26964;50.428;19.218;2023-03-01T20:51:12;246.8;;;108.2;;
41229;SDS011;26964;50.428;19.218;2023-03-01T20:56:12;133.9;;;61.4;;
41229;SDS011;26964;50.428;19.218;2023-03-01T21:01:14;112.7;;;52.5;;
41229;SDS011;26964;50.428;19.218;2023-03-01T21:06:11;127.3;;;59.7;;
41229;SDS011;26964;50.428;19.218;2023-03-01T21:11:11;143.4;;;64.9;;
41229;SDS011;26964;50.428;19.218;2023-03-01T21:16:11;175.3;;;71.6;;
41229;SDS011;26964;50.428;19.218;2023-03-01T21:21:11;152.1;;;63.1;;
41229;SDS011;26964;50.428;19.218;2023-03-01T21:26:10;96.2;;;43.5;;
41229;SDS011;26964;50.428;19.218;2023-03-01T21:31:11;55.2;;;27.5;;
41229;SDS011;26964;50.428;19.218;2023-03-01T21:36:10;53.0;;;26.4;;
41229;SDS011;26964;50.428;19.218;2023-03-01T21:41:11;55.2;;;26.0;;
41229;SDS011;26964;50.428;19.218;2023-03-01T21:46:11;61.8;;;30.5;;
41229;SDS011;26964;50.428;19.218;2023-03-01T21:51:10;65.1;;;32.7;;
41229;SDS011;26964;50.428;19.218;2023-03-01T22:01:10;79.4;;;38.8;;
41229;SDS011;26964;50.428;19.218;2023-03-01T22:06:11;71.3;;;33.9;;
41229;SDS011;26964;50.428;19.218;2023-03-01T22:11:10;66.2;;;32.1;;
41229;SDS011;26964;50.428;19.218;2023-03-01T22:16:10;71.0;;;32.7;;
41229;SDS011;26964;50.428;19.218;2023-03-01T22:21:10;70.3;;;32.6;;
41229;SDS011;26964;50.428;19.218;2023-03-01T22:31:10;67.9;;;34.0;;
41229;SDS011;26964;50.428;19.218;2023-03-01T22:36:10;78.1;;;36.3;;
41229;SDS011;26964;50.428;19.218;2023-03-01T22:41:10;81.4;;;37.2;;
41229;SDS011;26964;50.428;19.218;2023-03-01T22:46:10;75.3;;;35.9;;
41229;SDS011;26964;50.428;19.218;2023-03-01T22:56:11;66.0;;;32.7;;
41229;SDS011;26964;50.428;19.218;2023-03-01T23:01:10;67.2;;;30.6;;
41229;SDS011;26964;50.428;19.218;2023-03-01T23:06:11;79.0;;;35.5;;
41229;SDS011;26964;50.428;19.218;2023-03-01T23:11:12;159.9;;;73.8;;
41229;SDS011;26964;50.428;19.218;2023-03-01T23:16:10;181.3;;;81.8;;
41229;SDS011;26964;50.428;19.218;2023-03-01T23:21:11;153.4;;;69.2;;
41229;SDS011;26964;50.428;19.218;2023-03-01T23:26:10;150.4;;;67.6;;
41229;SDS011;26964;50.428;19.218;2023-03-01T23:31:11;168.1;;;77.0;;
41229;SDS011;26964;50.428;19.218;2023-03-01T23:41:10;156.2;;;71.7;;
41229;SDS011;26964;50.428;19.218;2023-03-01T23:46:10;165.8;;;74.2;;
41229;SDS011;26964;50.428;19.218;2023-03-01T23:51:11;165.4;;;73.9;;
41229;SDS011;26964;50.428;19.218;2023-03-01T23:56:10;156.1;;;71.6;;
